Time;durP1;ratioP1;P1;durP2;ratioP2;P2;SDS_P1;SDS_P2;PMS_P1;PMS_P2;Temp;Humidity;BMP_temperature;BMP_pressure;BME280_temperature;BME280_humidity;BME280_pressure;Samples;Min_cycle;Max_cycle;Signal;HPM_P1;HPM_P2
2022/04/19 00:00:34;;;;;;;12.37;6.90;;;2.30;98.10;;;;;;4270457;27;20282;-55
2022/04/19 00:02:36;;;;;;;12.73;6.07;;;2.30;98.90;;;;;;4274891;27;20290;-58
2022/04/19 00:04:37;;;;;;;11.90;6.30;;;2.30;99.20;;;;;;4273596;27;20719;-61
2022/04/19 00:06:38;;;;;;;11.03;5.77;;;2.20;99.50;;;;;;4275928;27;20261;-64
2022/04/19 00:08:39;;;;;;;12.23;6.20;;;2.20;98.80;;;;;;4274149;27;20337;-56
2022/04/19 00:10:42;;;;;;;15.07;5.50;;;2.30;99.00;;;;;;4256745;27;20271;-52
2022/04/19 00:12:43;;;;;;;12.00;6.40;;;2.20;98.80;;;;;;4274841;27;20334;-60
2022/04/19 00:14:44;;;;;;;11.00;6.30;;;2.20;98.90;;;;;;4272657;27;20314;-55
2022/04/19 00:16:46;;;;;;;15.37;6.23;;;2.10;99.10;;;;;;4273077;27;20310;-56
2022/04/19 00:18:47;;;;;;;12.13;5.97;;;2.10;99.20;;;;;;4274661;27;20311;-60
2022/04/19 00:20:49;;;;;;;11.57;6.03;;;2.00;99.40;;;;;;4274135;27;20266;-53
2022/04/19 00:22:51;;;;;;;7.97;5.30;;;1.90;99.60;;;;;;4274988;27;20340;-52
2022/04/19 00:24:52;;;;;;;14.90;5.80;;;1.80;99.70;;;;;;4274827;27;20254;-54
2022/04/19 00:26:55;;;;;;;12.67;5.20;;;1.80;99.90;;;;;;4273541;27;20299;-50
2022/04/19 00:28:56;;;;;;;10.77;5.87;;;1.70;99.90;;;;;;4274275;27;20262;-54
2022/04/19 00:30:58;;;;;;;13.07;5.70;;;1.70;99.90;;;;;;4272949;27;20258;-54
2022/04/19 00:32:59;;;;;;;10.07;5.23;;;1.70;99.90;;;;;;4257913;27;20263;-52
2022/04/19 00:35:00;;;;;;;8.37;5.67;;;1.80;99.90;;;;;;4256108;27;20355;-54
2022/04/19 00:37:02;;;;;;;8.23;4.70;;;1.80;99.90;;;;;;4257683;27;20312;-54
2022/04/19 00:39:04;;;;;;;7.87;4.47;;;1.80;99.90;;;;;;4256184;27;20323;-54
2022/04/19 00:41:05;;;;;;;10.43;4.57;;;1.90;99.90;;;;;;4258035;27;20266;-51
2022/04/19 00:43:06;;;;;;;10.40;5.40;;;1.90;99.90;;;;;;4256437;27;20358;-53
2022/04/19 00:45:08;;;;;;;10.73;5.53;;;1.90;99.90;;;;;;4257990;27;20323;-53
2022/04/19 00:47:10;;;;;;;11.33;5.60;;;1.90;99.90;;;;;;4256621;27;20690;-53
2022/04/19 00:49:11;;;;;;;12.47;5.67;;;1.80;99.90;;;;;;4257028;27;20279;-54
2022/04/19 00:51:13;;;;;;;14.37;6.43;;;1.70;99.90;;;;;;4256930;27;20319;-55
2022/04/19 00:53:15;;;;;;;9.40;5.37;;;1.60;99.90;;;;;;4256822;27;20354;-51
2022/04/19 00:55:16;;;;;;;8.57;5.33;;;1.50;99.90;;;;;;4256857;27;20347;-47
2022/04/19 00:57:17;;;;;;;8.63;4.77;;;1.40;99.90;;;;;;4256341;27;20319;-51
2022/04/19 00:59:20;;;;;;;8.07;4.63;;;1.40;99.90;;;;;;4257237;27;20311;-53
2022/04/19 01:01:21;;;;;;;9.50;4.63;;;1.40;99.90;;;;;;4256839;27;20330;-52
2022/04/19 01:03:24;;;;;;;9.57;4.87;;;1.40;99.90;;;;;;4260612;27;20397;-55
2022/04/19 01:05:25;;;;;;;8.57;4.53;;;1.40;99.90;;;;;;4276646;27;20266;-52
2022/04/19 01:07:27;;;;;;;8.50;4.73;;;1.40;99.90;;;;;;4278405;27;20270;-53
2022/04/19 01:09:28;;;;;;;8.83;4.07;;;1.40;99.90;;;;;;4276525;27;20246;-54
2022/04/19 01:13:53;;;;;;;12.30;4.70;;;1.40;99.90;;;;;;4277621;27;20270;-53
2022/04/19 01:15:54;;;;;;;12.10;4.50;;;1.30;99.90;;;;;;4277853;27;20258;-55
2022/04/19 01:17:57;;;;;;;9.50;4.40;;;1.30;99.90;;;;;;4276041;27;20329;-54
2022/04/19 01:19:58;;;;;;;10.47;4.63;;;1.30;99.90;;;;;;4277849;27;20270;-54
2022/04/19 01:21:59;;;;;;;11.67;4.30;;;1.30;99.90;;;;;;4275308;27;20277;-52
2022/04/19 01:24:00;;;;;;;11.23;4.20;;;1.30;99.90;;;;;;4259070;27;21215;-52
2022/04/19 01:26:02;;;;;;;7.13;3.90;;;1.20;99.90;;;;;;4276248;27;20311;-53
2022/04/19 01:28:04;;;;;;;7.90;4.53;;;1.30;99.90;;;;;;4276862;27;20299;-53
2022/04/19 01:30:09;;;;;;;8.60;4.20;;;1.20;99.90;;;;;;4276307;27;20250;-49
2022/04/19 01:32:12;;;;;;;9.93;5.30;;;1.20;99.90;;;;;;4276036;27;20826;-56
2022/04/19 01:34:13;;;;;;;8.60;4.73;;;1.20;99.90;;;;;;4277019;27;20290;-51
2022/04/19 01:36:15;;;;;;;11.93;3.93;;;1.10;99.90;;;;;;4269000;27;20610;-56
2022/04/19 01:38:16;;;;;;;7.77;4.30;;;1.00;99.90;;;;;;4260162;27;20316;-51
2022/04/19 01:40:18;;;;;;;6.23;3.93;;;1.00;99.90;;;;;;4274483;27;20266;-49
2022/04/19 01:42:19;;;;;;;7.73;4.40;;;1.00;99.90;;;;;;4277924;27;20270;-56
2022/04/19 01:44:20;;;;;;;10.97;4.80;;;1.00;99.90;;;;;;4276003;27;20297;-47
2022/04/19 01:46:23;;;;;;;10.10;4.40;;;0.90;99.90;;;;;;4277570;27;20247;-54
2022/04/19 01:48:24;;;;;;;8.23;3.93;;;0.90;99.90;;;;;;4275448;27;20269;-53
2022/04/19 01:50:26;;;;;;;8.10;4.17;;;0.90;99.90;;;;;;4277519;27;20310;-55
2022/04/19 01:52:27;;;;;;;10.50;4.50;;;0.90;99.90;;;;;;4275873;27;20278;-52
2022/04/19 01:54:29;;;;;;;7.57;4.53;;;0.90;99.90;;;;;;4277688;27;20319;-53
2022/04/19 01:56:32;;;;;;;8.43;4.30;;;0.90;99.90;;;;;;4275431;27;20286;-51
2022/04/19 01:58:33;;;;;;;7.00;3.93;;;0.90;99.90;;;;;;4276334;27;20757;-55
2022/04/19 02:00:34;;;;;;;9.27;4.30;;;0.90;99.90;;;;;;4271361;27;20263;-53
2022/04/19 02:02:36;;;;;;;8.33;4.07;;;1.00;99.90;;;;;;4259255;27;20312;-53
2022/04/19 02:04:37;;;;;;;7.43;4.17;;;1.00;99.90;;;;;;4258810;27;20274;-57
2022/04/19 02:06:39;;;;;;;7.93;4.23;;;0.90;99.90;;;;;;4258846;27;20271;-53
2022/04/19 02:08:40;;;;;;;7.40;4.03;;;0.90;99.90;;;;;;4241712;27;20264;-56
2022/04/19 02:10:41;;;;;;;7.20;4.10;;;0.90;99.90;;;;;;4258649;27;20250;-52
2022/04/19 02:12:43;;;;;;;8.87;4.43;;;0.90;99.90;;;;;;4275572;27;20274;-49
2022/04/19 02:14:44;;;;;;;7.10;4.20;;;0.90;99.90;;;;;;4273990;27;20301;-55
2022/04/19 02:16:45;;;;;;;10.23;4.90;;;0.90;99.90;;;;;;4276699;27;20659;-52
2022/04/19 02:18:48;;;;;;;9.30;4.37;;;0.90;99.90;;;;;;4275637;27;20310;-52
2022/04/19 02:20:49;;;;;;;7.80;4.50;;;0.90;99.90;;;;;;4277408;27;20254;-51
2022/04/19 02:22:50;;;;;;;10.97;5.33;;;0.80;99.90;;;;;;4256972;27;20688;-52
2022/04/19 02:24:51;;;;;;;9.47;4.57;;;0.80;99.90;;;;;;4276384;27;20269;-53
2022/04/19 02:26:54;;;;;;;9.20;4.40;;;0.70;99.90;;;;;;4275933;27;20322;-53
2022/04/19 02:28:55;;;;;;;11.00;4.80;;;0.70;99.90;;;;;;4276200;27;21051;-56
2022/04/19 02:30:56;;;;;;;13.47;5.87;;;0.60;99.90;;;;;;4274956;27;20274;-56
2022/04/19 02:32:57;;;;;;;10.87;5.27;;;0.60;99.90;;;;;;4275594;27;20250;-51
2022/04/19 02:34:58;;;;;;;11.30;6.30;;;0.50;99.90;;;;;;4276160;27;20258;-54
2022/04/19 02:36:59;;;;;;;11.37;5.40;;;0.50;99.90;;;;;;4256375;27;20278;-55
2022/04/19 02:39:01;;;;;;;11.80;5.70;;;0.40;99.90;;;;;;4275472;27;20258;-52
2022/04/19 02:41:04;;;;;;;25.90;5.77;;;0.40;99.90;;;;;;4275543;27;20338;-50
2022/04/19 02:43:05;;;;;;;9.33;5.77;;;0.40;99.90;;;;;;4275405;27;20301;-56
2022/04/19 02:45:07;;;;;;;8.50;4.97;;;0.40;99.90;;;;;;4275002;27;20274;-56
2022/04/19 02:47:08;;;;;;;9.27;4.93;;;0.40;99.90;;;;;;4276618;27;20353;-56
2022/04/19 02:49:09;;;;;;;16.23;5.07;;;0.30;99.90;;;;;;4274173;27;20346;-49
2022/04/19 02:51:10;;;;;;;8.43;4.17;;;0.30;99.90;;;;;;4275833;27;20277;-52
2022/04/19 02:53:12;;;;;;;9.23;4.90;;;0.20;99.90;;;;;;4274770;27;20330;-51
2022/04/19 02:55:13;;;;;;;9.73;5.30;;;0.20;99.90;;;;;;4276589;27;20266;-52
2022/04/19 02:57:15;;;;;;;6.97;4.20;;;0.20;99.90;;;;;;4274738;27;20279;-55
2022/04/19 02:59:16;;;;;;;7.57;4.40;;;0.10;99.90;;;;;;4275917;27;20262;-55
2022/04/19 03:01:18;;;;;;;12.23;4.87;;;0.10;99.90;;;;;;4274311;27;20321;-52
2022/04/19 03:03:19;;;;;;;8.30;4.57;;;0.10;99.90;;;;;;4275205;27;20335;-66
2022/04/19 03:05:21;;;;;;;11.10;5.60;;;0.10;99.90;;;;;;4274888;27;20266;-68
2022/04/19 03:07:22;;;;;;;21.80;9.50;;;0.00;99.90;;;;;;4257052;27;20274;-56
2022/04/19 03:09:23;;;;;;;27.80;10.40;;;0.00;99.90;;;;;;4275809;27;20254;-54
2022/04/19 03:11:24;;;;;;;42.67;15.67;;;-0.10;99.90;;;;;;4256448;27;21065;-53
2022/04/19 03:13:27;;;;;;;31.77;12.57;;;-0.10;99.90;;;;;;4275787;27;20274;-51
2022/04/19 03:15:29;;;;;;;62.33;21.33;;;-0.10;99.90;;;;;;4257245;27;20278;-55
2022/04/19 03:17:31;;;;;;;34.13;12.13;;;-0.10;99.90;;;;;;4257559;27;20308;-53
2022/04/19 03:19:33;;;;;;;13.33;6.23;;;-0.10;99.90;;;;;;4256576;27;20275;-56
2022/04/19 03:21:35;;;;;;;19.57;7.50;;;-0.10;99.90;;;;;;4258578;27;20275;-56
2022/04/19 03:28:17;;;;;;;12.70;5.77;;;0.00;99.90;;;;;;4274702;27;20038;-61
2022/04/19 03:30:18;;;;;;;31.50;13.23;;;0.10;99.90;;;;;;4275256;27;20357;-54
2022/04/19 03:32:19;;;;;;;55.07;21.57;;;0.10;99.90;;;;;;4273512;27;20278;-55
2022/04/19 03:34:20;;;;;;;26.00;10.77;;;0.10;99.90;;;;;;4275672;27;20347;-55
2022/04/19 03:36:22;;;;;;;16.20;8.33;;;0.10;99.90;;;;;;4254780;27;20271;-55
2022/04/19 03:38:23;;;;;;;12.43;6.30;;;0.10;99.90;;;;;;4275525;27;20278;-60
2022/04/19 03:40:25;;;;;;;39.37;13.97;;;0.00;99.90;;;;;;4274138;27;20258;-52
2022/04/19 03:42:26;;;;;;;127.20;38.33;;;0.00;99.90;;;;;;4274667;27;20278;-57
2022/04/19 03:44:29;;;;;;;98.47;34.27;;;0.00;99.90;;;;;;4274202;27;20334;-53
2022/04/19 03:46:30;;;;;;;135.13;44.47;;;0.00;99.90;;;;;;4268500;27;20350;-55
2022/04/19 03:48:32;;;;;;;74.17;25.03;;;0.00;99.90;;;;;;4256664;27;20327;-58
2022/04/19 03:50:33;;;;;;;102.87;32.53;;;0.00;99.90;;;;;;4257347;27;20259;-58
2022/04/19 03:52:36;;;;;;;80.53;27.57;;;0.00;99.90;;;;;;4256803;27;20283;-56
2022/04/19 03:54:37;;;;;;;47.97;18.13;;;0.10;99.90;;;;;;4257248;27;20266;-55
2022/04/19 03:56:38;;;;;;;33.57;13.03;;;0.10;99.90;;;;;;4257380;27;20274;-51
2022/04/19 03:58:39;;;;;;;30.70;12.73;;;0.10;99.90;;;;;;4255740;27;20258;-52
2022/04/19 04:00:40;;;;;;;35.63;12.93;;;0.10;99.90;;;;;;4262675;27;20266;-56
2022/04/19 04:02:42;;;;;;;75.13;25.17;;;0.10;99.90;;;;;;4273464;27;20311;-51
2022/04/19 04:04:43;;;;;;;89.33;32.50;;;0.20;99.90;;;;;;4274520;27;20289;-57
2022/04/19 04:06:44;;;;;;;65.27;26.07;;;0.50;99.90;;;;;;4260857;27;20327;-57
2022/04/19 04:08:45;;;;;;;77.23;28.77;;;1.00;99.90;;;;;;4261881;27;20275;-55
2022/04/19 04:10:46;;;;;;;78.20;29.47;;;1.50;99.90;;;;;;4256159;27;20282;-54
2022/04/19 04:12:47;;;;;;;106.13;41.53;;;2.00;99.90;;;;;;4257826;27;20278;-53
2022/04/19 04:14:48;;;;;;;172.27;66.83;;;2.50;99.90;;;;;;4256759;27;20258;-55
2022/04/19 04:16:49;;;;;;;66.97;30.17;;;3.00;99.90;;;;;;4257390;27;21021;-57
2022/04/19 04:18:51;;;;;;;29.20;12.40;;;3.60;99.90;;;;;;4256855;27;20294;-56
2022/04/19 04:20:52;;;;;;;15.97;8.27;;;4.10;99.90;;;;;;4256982;27;20271;-51
2022/04/19 04:22:53;;;;;;;14.13;7.80;;;4.70;99.90;;;;;;4257522;27;20251;-53
2022/04/19 04:24:54;;;;;;;14.77;7.30;;;5.10;99.90;;;;;;4256577;27;20292;-52
2022/04/19 04:26:56;;;;;;;15.10;8.00;;;5.60;99.90;;;;;;4268973;27;20330;-52
2022/04/19 04:28:57;;;;;;;17.97;7.37;;;6.10;99.20;;;;;;4273166;27;20277;-53
2022/04/19 04:30:58;;;;;;;13.80;6.57;;;6.40;98.20;;;;;;4274792;27;20405;-58
2022/04/19 04:32:59;;;;;;;16.43;7.63;;;6.80;97.40;;;;;;4268104;27;20914;-53
2022/04/19 04:35:00;;;;;;;21.40;8.03;;;7.00;96.40;;;;;;4257660;27;20363;-54
2022/04/19 04:37:01;;;;;;;18.53;9.70;;;7.20;95.30;;;;;;4255827;27;20315;-55
2022/04/19 04:39:03;;;;;;;22.67;9.40;;;7.30;94.60;;;;;;4261067;27;20327;-55
2022/04/19 04:41:04;;;;;;;22.77;10.83;;;7.80;94.00;;;;;;4258710;27;20327;-51
2022/04/19 04:43:05;;;;;;;18.27;10.03;;;8.20;93.20;;;;;;4261574;27;20270;-53
2022/04/19 04:45:07;;;;;;;12.27;7.20;;;8.80;92.70;;;;;;4259583;27;20451;-55
2022/04/19 04:49:39;;;;;;;15.43;6.53;;;9.50;90.80;;;;;;4256521;27;20034;-57
2022/04/19 04:51:40;;;;;;;14.47;6.50;;;9.90;89.20;;;;;;4262002;27;20543;-52
2022/04/19 04:53:41;;;;;;;12.63;6.30;;;10.10;87.80;;;;;;4261300;27;20031;-57
2022/04/19 04:55:42;;;;;;;16.93;6.17;;;10.50;87.40;;;;;;4270439;27;20046;-51
2022/04/19 04:57:43;;;;;;;9.77;6.13;;;10.80;85.00;;;;;;4250854;27;20500;-57
2022/04/19 04:59:45;;;;;;;16.53;6.43;;;10.70;84.10;;;;;;4262831;27;20034;-58
2022/04/19 05:01:46;;;;;;;10.90;6.00;;;11.00;82.20;;;;;;4265917;27;20030;-54
2022/04/19 05:03:48;;;;;;;16.30;7.27;;;11.30;81.20;;;;;;4263034;27;20046;-58
2022/04/19 05:05:49;;;;;;;16.53;7.30;;;11.60;79.90;;;;;;4259983;27;20043;-54
2022/04/19 05:07:51;;;;;;;23.43;7.23;;;12.00;79.00;;;;;;4253130;27;20067;-57
2022/04/19 05:09:53;;;;;;;16.93;6.93;;;12.50;77.30;;;;;;4251724;27;20084;-59
2022/04/19 05:11:54;;;;;;;13.13;7.47;;;12.80;75.60;;;;;;4260202;27;20030;-56
2022/04/19 05:13:56;;;;;;;23.93;7.33;;;13.30;75.00;;;;;;4260886;27;20030;-56
2022/04/19 05:16:01;;;;;;;16.77;6.57;;;13.20;72.90;;;;;;4258491;27;20034;-49
2022/04/19 05:18:02;;;;;;;26.30;8.10;;;12.80;72.60;;;;;;4260803;27;20621;-54
2022/04/19 05:20:04;;;;;;;18.30;7.00;;;12.00;72.00;;;;;;4258265;27;20071;-57
2022/04/19 05:22:05;;;;;;;17.13;7.57;;;11.10;72.50;;;;;;4260010;27;20095;-57
2022/04/19 05:24:08;;;;;;;20.60;8.23;;;10.30;72.90;;;;;;4240535;27;20099;-54
2022/04/19 05:26:09;;;;;;;20.00;8.27;;;10.40;74.40;;;;;;4260016;27;20415;-54
2022/04/19 05:28:10;;;;;;;16.60;8.93;;;10.30;73.90;;;;;;4258998;27;20072;-54
2022/04/19 05:30:11;;;;;;;17.00;7.37;;;9.90;74.20;;;;;;4258838;27;20038;-53
2022/04/19 05:32:13;;;;;;;21.13;7.77;;;9.70;74.70;;;;;;4259509;27;20067;-54
2022/04/19 05:34:14;;;;;;;18.83;9.10;;;9.30;74.60;;;;;;4258331;27;20436;-55
2022/04/19 05:36:15;;;;;;;29.87;13.37;;;9.00;76.00;;;;;;4260359;27;20030;-56
2022/04/19 05:38:17;;;;;;;32.50;11.77;;;8.90;76.50;;;;;;4256656;27;20091;-48
2022/04/19 05:40:18;;;;;;;25.77;12.53;;;8.70;76.70;;;;;;4237061;27;20076;-59
2022/04/19 05:42:19;;;;;;;37.03;13.50;;;8.50;77.20;;;;;;4243417;27;20023;-56
2022/04/19 05:44:21;;;;;;;29.23;11.17;;;8.10;77.80;;;;;;4241964;27;20103;-54
2022/04/19 05:46:22;;;;;;;26.70;11.23;;;8.40;77.90;;;;;;4240348;27;20995;-57
2022/04/19 05:48:25;;;;;;;35.33;11.93;;;8.60;77.70;;;;;;4259568;27;20115;-55
2022/04/19 05:50:26;;;;;;;24.00;11.03;;;9.00;76.70;;;;;;4262065;27;20115;-53
2022/04/19 05:52:27;;;;;;;23.50;9.77;;;9.20;76.20;;;;;;4257972;27;20038;-58
2022/04/19 05:54:28;;;;;;;24.73;10.43;;;9.60;75.70;;;;;;4264312;27;20031;-57
2022/04/19 05:56:30;;;;;;;24.37;11.33;;;10.50;74.90;;;;;;4249298;27;20042;-52
2022/04/19 05:58:32;;;;;;;31.50;11.07;;;10.30;73.60;;;;;;4256558;27;20186;-55
2022/04/19 06:00:34;;;;;;;26.53;12.77;;;10.00;73.70;;;;;;4257564;27;20104;-56
2022/04/19 06:04:57;;;;;;;26.00;10.90;;;10.50;74.70;;;;;;4264626;27;20098;-54
2022/04/19 06:06:58;;;;;;;20.20;10.67;;;10.60;73.20;;;;;;4257021;27;20099;-51
2022/04/19 06:08:59;;;;;;;24.83;9.83;;;10.40;73.40;;;;;;4261854;27;20410;-51
2022/04/19 06:11:00;;;;;;;18.13;11.27;;;10.90;73.10;;;;;;4264732;27;20576;-54
2022/04/19 06:13:02;;;;;;;24.17;10.13;;;11.70;72.00;;;;;;4264872;27;20038;-56
2022/04/19 06:15:03;;;;;;;27.03;10.53;;;11.80;70.50;;;;;;4265757;27;20027;-60
2022/04/19 06:17:04;;;;;;;21.03;10.53;;;11.20;70.70;;;;;;4261758;27;20042;-56
2022/04/19 06:19:06;;;;;;;16.17;9.83;;;10.70;71.30;;;;;;4261587;27;20368;-57
2022/04/19 06:21:07;;;;;;;31.23;10.53;;;11.00;71.90;;;;;;4258796;27;20067;-55
2022/04/19 06:23:08;;;;;;;24.27;10.33;;;10.80;70.30;;;;;;4266693;27;20110;-55
2022/04/19 06:25:10;;;;;;;23.93;9.93;;;10.20;71.40;;;;;;4257990;27;20054;-56
2022/04/19 06:27:11;;;;;;;26.37;10.30;;;10.20;72.00;;;;;;4258792;27;20027;-56
2022/04/19 06:29:12;;;;;;;16.07;8.90;;;10.70;71.80;;;;;;4263146;27;20018;-56
2022/04/19 06:31:14;;;;;;;21.07;8.67;;;10.70;71.20;;;;;;4258279;27;20490;-56
2022/04/19 06:33:15;;;;;;;19.90;8.43;;;10.80;70.80;;;;;;4263048;27;20376;-52
2022/04/19 06:35:16;;;;;;;18.47;7.97;;;11.10;70.50;;;;;;4265450;27;20439;-53
2022/04/19 06:37:17;;;;;;;15.53;7.07;;;11.50;69.40;;;;;;4261186;27;20053;-52
2022/04/19 06:39:18;;;;;;;15.50;6.63;;;11.10;69.00;;;;;;4260279;27;20454;-51
2022/04/19 06:41:20;;;;;;;15.90;6.20;;;11.20;69.50;;;;;;4263887;27;20034;-54
2022/04/19 06:43:21;;;;;;;13.67;7.53;;;11.10;68.30;;;;;;4260016;27;20030;-54
2022/04/19 06:45:23;;;;;;;15.93;6.90;;;10.60;69.10;;;;;;4262380;27;20058;-54
2022/04/19 06:47:25;;;;;;;10.23;5.77;;;10.70;69.70;;;;;;4261409;27;20037;-56
2022/04/19 06:49:27;;;;;;;9.03;4.40;;;10.50;68.80;;;;;;4261553;27;20042;-55
2022/04/19 06:51:30;;;;;;;7.40;5.10;;;10.70;68.40;;;;;;4262668;27;20038;-56
2022/04/19 06:53:31;;;;;;;8.07;5.40;;;10.50;68.30;;;;;;4256796;27;20110;-58
2022/04/19 06:55:32;;;;;;;4.47;2.80;;;10.20;68.70;;;;;;4260449;27;20075;-63
2022/04/19 06:57:39;;;;;;;7.23;3.27;;;10.10;68.10;;;;;;4240766;27;20076;-56
2022/04/19 06:59:40;;;;;;;7.53;3.27;;;10.10;68.20;;;;;;4239433;27;20035;-57
2022/04/19 07:01:43;;;;;;;8.83;4.10;;;10.30;68.30;;;;;;4249462;27;20808;-57
2022/04/19 07:03:44;;;;;;;7.57;3.27;;;10.20;68.20;;;;;;4258272;27;20039;-53
2022/04/19 07:05:45;;;;;;;4.60;2.67;;;10.50;68.00;;;;;;4258901;27;20460;-55
2022/04/19 07:07:46;;;;;;;4.80;2.73;;;11.00;66.60;;;;;;4269590;27;20035;-63
2022/04/19 07:09:49;;;;;;;9.73;2.67;;;11.20;66.10;;;;;;4267641;27;20042;-54
2022/04/19 07:11:51;;;;;;;6.83;2.70;;;11.20;65.50;;;;;;4268432;27;20038;-55
2022/04/19 07:13:52;;;;;;;3.80;2.60;;;11.50;65.40;;;;;;4268329;27;20554;-56
2022/04/19 07:15:53;;;;;;;3.63;2.80;;;11.70;64.90;;;;;;4259319;27;20095;-61
2022/04/19 07:17:55;;;;;;;4.70;2.10;;;12.30;64.20;;;;;;4257130;27;20023;-55
2022/04/19 07:26:59;;;;;;;7.23;2.40;;;12.90;63.00;;;;;;4245855;27;20557;-64
2022/04/19 07:29:01;;;;;;;7.07;3.27;;;13.30;62.10;;;;;;4257913;27;20027;-61
2022/04/19 07:31:04;;;;;;;3.73;1.80;;;13.40;61.60;;;;;;4257174;27;20023;-53
2022/04/19 07:33:05;;;;;;;3.53;1.90;;;13.30;61.20;;;;;;4257719;27;20026;-60
2022/04/19 07:35:07;;;;;;;3.70;2.53;;;13.40;60.80;;;;;;4256787;27;20039;-56
2022/04/19 07:37:08;;;;;;;8.57;4.40;;;13.40;60.50;;;;;;4258864;27;20483;-54
2022/04/19 07:39:11;;;;;;;4.13;2.20;;;13.30;60.10;;;;;;4256629;27;20046;-52
2022/04/19 07:41:12;;;;;;;4.80;2.30;;;12.50;60.20;;;;;;4271546;27;20400;-56
2022/04/19 07:43:13;;;;;;;6.40;2.23;;;12.60;60.90;;;;;;4259327;27;20030;-56
2022/04/19 07:45:15;;;;;;;3.30;2.03;;;12.80;60.40;;;;;;4259104;27;20103;-55
2022/04/19 07:47:17;;;;;;;4.43;2.07;;;13.00;60.30;;;;;;4268372;27;20042;-58
2022/04/19 07:49:18;;;;;;;4.83;2.30;;;13.10;59.80;;;;;;4258010;27;20058;-52
2022/04/19 07:51:20;;;;;;;3.30;1.93;;;13.00;59.70;;;;;;4256436;27;20095;-55
2022/04/19 07:53:21;;;;;;;4.10;1.83;;;12.80;59.30;;;;;;4256281;27;20039;-54
2022/04/19 07:55:23;;;;;;;3.40;2.03;;;12.40;58.90;;;;;;4256642;27;20735;-54
2022/04/19 07:57:24;;;;;;;4.63;2.00;;;12.00;59.20;;;;;;4257026;27;20055;-53
2022/04/19 07:59:25;;;;;;;3.33;2.13;;;11.70;59.00;;;;;;4256788;27;20027;-52
2022/04/19 08:01:27;;;;;;;5.40;2.60;;;11.60;59.80;;;;;;4255988;27;20038;-52
2022/04/19 08:03:28;;;;;;;3.57;2.00;;;11.60;59.50;;;;;;4258114;27;20023;-55
2022/04/19 08:05:29;;;;;;;2.53;1.27;;;11.60;59.30;;;;;;4256580;27;20054;-55
2022/04/19 08:07:30;;;;;;;7.13;1.53;;;11.70;58.90;;;;;;4258908;27;20087;-50
2022/04/19 08:09:32;;;;;;;3.17;1.30;;;11.90;58.80;;;;;;4256787;27;20083;-56
2022/04/19 08:11:33;;;;;;;1.67;1.27;;;12.10;57.40;;;;;;4257207;27;20046;-52
2022/04/19 08:13:34;;;;;;;4.63;1.30;;;11.90;57.40;;;;;;4256093;27;20075;-52
2022/04/19 08:15:35;;;;;;;4.67;1.00;;;11.90;57.00;;;;;;4239860;27;20052;-60
2022/04/19 08:17:37;;;;;;;3.80;0.73;;;11.90;56.40;;;;;;4256530;27;20515;-53
2022/04/19 08:19:38;;;;;;;1.10;1.00;;;11.70;54.70;;;;;;4257264;27;20038;-65
2022/04/19 08:21:40;;;;;;;2.03;0.90;;;11.30;54.10;;;;;;4258099;27;20101;-55
2022/04/19 08:23:41;;;;;;;2.50;0.80;;;11.40;55.20;;;;;;4270369;27;20039;-60
2022/04/19 08:25:45;;;;;;;4.30;0.83;;;11.60;54.40;;;;;;4256682;27;20087;-57
2022/04/19 08:27:46;;;;;;;3.17;1.50;;;11.60;54.60;;;;;;4242475;27;20084;-63
2022/04/19 08:29:48;;;;;;;8.57;1.43;;;11.80;54.70;;;;;;4252360;27;20428;-53
2022/04/19 08:31:49;;;;;;;7.70;1.60;;;11.90;55.00;;;;;;4249415;27;20510;-55
2022/04/19 08:33:50;;;;;;;2.53;1.00;;;12.10;54.90;;;;;;4271342;27;20042;-55
2022/04/19 08:35:51;;;;;;;2.57;1.20;;;12.30;54.90;;;;;;4268411;27;20063;-56
2022/04/19 08:37:52;;;;;;;1.27;0.60;;;12.70;55.60;;;;;;4262173;27;20030;-55
2022/04/19 08:39:54;;;;;;;2.40;1.23;;;13.00;54.20;;;;;;4259646;27;20042;-52
2022/04/19 08:41:55;;;;;;;1.57;0.80;;;13.30;53.50;;;;;;4267545;27;20030;-58
2022/04/19 08:43:56;;;;;;;1.87;0.97;;;13.30;52.60;;;;;;4262161;27;20091;-59
2022/04/19 08:45:57;;;;;;;2.20;0.90;;;13.40;52.50;;;;;;4264289;27;20395;-53
2022/04/19 08:48:00;;;;;;;1.90;1.23;;;13.50;52.40;;;;;;4266857;27;20030;-55
2022/04/19 08:50:04;;;;;;;2.63;1.30;;;13.40;52.20;;;;;;4258718;27;20055;-56
2022/04/19 08:52:05;;;;;;;1.70;1.13;;;13.40;52.60;;;;;;4264356;27;20046;-62
2022/04/19 08:58:48;;;;;;;6.60;1.35;;;13.50;52.60;;;;;;4258069;27;20034;-57
2022/04/19 09:00:49;;;;;;;2.03;1.30;;;13.40;51.60;;;;;;4255581;27;20558;-57
2022/04/19 09:02:52;;;;;;;3.03;1.40;;;13.40;51.80;;;;;;4256914;27;20062;-58
2022/04/19 09:05:10;;;;;;;1.93;1.03;;;13.50;52.30;;;;;;4259839;27;20474;-54
2022/04/19 09:07:11;;;;;;;2.87;0.93;;;13.80;51.30;;;;;;4270125;27;20035;-56
2022/04/19 09:09:12;;;;;;;1.70;1.07;;;14.00;51.70;;;;;;4257486;27;20039;-56
2022/04/19 09:11:14;;;;;;;2.33;1.00;;;13.80;51.00;;;;;;4260230;27;20030;-57
2022/04/19 09:13:23;;;;;;;1.80;1.47;;;13.50;51.10;;;;;;4254894;27;20035;-59
2022/04/19 09:15:37;;;;;;;3.73;1.50;;;13.40;51.60;;;;;;4254721;27;20043;-54
2022/04/19 09:17:42;;;;;;;2.10;1.20;;;13.50;51.40;;;;;;4255795;27;20286;-58
2022/04/19 09:19:43;;;;;;;2.83;1.10;;;13.40;51.60;;;;;;4255598;27;20092;-55
2022/04/19 09:21:44;;;;;;;1.87;1.50;;;13.70;51.40;;;;;;4255592;27;20099;-56
2022/04/19 09:23:53;;;;;;;1.50;1.23;;;13.70;51.50;;;;;;4255650;27;20111;-53
2022/04/19 09:25:56;;;;;;;1.33;1.13;;;13.70;51.50;;;;;;4259464;27;20043;-58
2022/04/19 09:27:58;;;;;;;6.73;0.80;;;13.80;52.10;;;;;;4258273;27;20411;-60
2022/04/19 09:30:26;;;;;;;1.67;1.10;;;13.90;51.00;;;;;;4260631;27;20043;-59
2022/04/19 09:32:28;;;;;;;1.90;1.10;;;13.90;50.50;;;;;;4258866;27;20034;-56
2022/04/19 09:34:32;;;;;;;1.60;1.07;;;14.00;50.90;;;;;;4260061;27;20031;-56
2022/04/19 09:36:34;;;;;;;1.20;1.10;;;14.00;50.80;;;;;;4258215;27;20091;-55
2022/04/19 09:38:36;;;;;;;1.30;1.20;;;14.00;51.00;;;;;;4262951;27;20063;-58
2022/04/19 09:40:45;;;;;;;1.53;1.10;;;13.70;49.80;;;;;;4276273;27;20082;-55
2022/04/19 09:42:47;;;;;;;5.60;1.30;;;13.10;50.00;;;;;;4276813;27;20400;-54
2022/04/19 09:44:51;;;;;;;1.13;0.90;;;12.50;50.10;;;;;;4276003;27;20447;-56
2022/04/19 09:47:06;;;;;;;1.43;1.33;;;12.40;51.00;;;;;;4276990;27;20038;-56
2022/04/19 09:49:07;;;;;;;2.33;1.53;;;12.40;51.10;;;;;;4276264;27;20428;-53
2022/04/19 09:51:10;;;;;;;3.63;2.70;;;12.40;50.80;;;;;;4277561;27;20457;-50
2022/04/19 09:53:16;;;;;;;2.47;1.57;;;12.20;50.40;;;;;;4269279;27;20582;-57
2022/04/19 09:55:18;;;;;;;2.83;2.23;;;12.10;50.90;;;;;;4259857;27;20039;-57
2022/04/19 09:57:19;;;;;;;2.37;1.43;;;12.10;50.90;;;;;;4258617;27;21550;-52
2022/04/19 09:59:24;;;;;;;1.63;0.90;;;12.10;50.50;;;;;;4268887;27;20102;-53
2022/04/19 10:08:28;;;;;;;3.17;1.67;;;11.10;53.20;;;;;;4261621;27;20159;-56
2022/04/19 10:10:31;;;;;;;3.27;1.10;;;10.90;53.50;;;;;;4268039;27;20014;-55
2022/04/19 10:12:33;;;;;;;2.77;1.43;;;10.80;53.00;;;;;;4241761;27;20080;-54
2022/04/19 10:14:35;;;;;;;2.70;1.03;;;10.90;53.20;;;;;;4245730;27;20091;-53
2022/04/19 10:16:37;;;;;;;1.83;1.10;;;11.20;52.90;;;;;;4276774;27;20030;-55
2022/04/19 10:18:39;;;;;;;2.60;1.33;;;11.20;52.10;;;;;;4274965;27;20396;-56
2022/04/19 10:21:09;;;;;;;1.30;0.80;;;11.20;51.50;;;;;;4263556;27;20083;-54
2022/04/19 10:23:11;;;;;;;3.10;1.35;;;10.90;51.60;;;;;;4255075;27;20131;-53
2022/04/19 10:25:15;;;;;;;1.90;1.33;;;10.80;52.50;;;;;;4259610;27;20099;-53
2022/04/19 10:27:16;;;;;;;1.53;1.20;;;11.10;52.80;;;;;;4257888;27;20058;-56
2022/04/19 10:29:22;;;;;;;1.53;1.23;;;11.40;52.80;;;;;;4259319;27;20031;-60
2022/04/19 10:31:31;;;;;;;2.23;1.10;;;11.40;52.10;;;;;;4258128;27;20035;-55
2022/04/19 10:33:41;;;;;;;9.32;1.40;;;11.50;52.40;;;;;;4258105;27;20042;-50
2022/04/19 10:36:13;;;;;;;4.40;1.13;;;11.70;52.50;;;;;;4256381;27;20383;-56
2022/04/19 10:38:20;;;;;;;1.30;1.03;;;12.00;52.50;;;;;;4245364;27;20034;-55
2022/04/19 10:40:23;;;;;;;2.93;1.20;;;12.20;52.60;;;;;;4257620;27;20113;-51
2022/04/19 10:42:26;;;;;;;1.10;1.00;;;12.40;51.70;;;;;;4258516;27;20396;-55
2022/04/19 10:44:43;;;;;;;1.43;1.17;;;12.50;51.50;;;;;;4259193;27;20035;-54
2022/04/19 10:46:45;;;;;;;2.60;0.97;;;12.10;50.30;;;;;;4272008;27;20046;-56
2022/04/19 10:49:23;;;;;;;2.07;1.00;;;12.00;51.30;;;;;;4274855;27;20440;-54
2022/04/19 10:51:27;;;;;;;2.27;1.00;;;12.00;51.30;;;;;;4274987;27;20407;-55
2022/04/19 10:53:34;;;;;;;4.37;1.70;;;12.10;52.00;;;;;;4257114;27;20586;-54
2022/04/19 10:55:40;;;;;;;1.77;1.10;;;12.10;52.50;;;;;;4258595;27;20042;-54
2022/04/19 11:00:21;;;;;;;3.22;1.73;;;12.00;52.40;;;;;;4276474;27;20088;-57
2022/04/19 11:02:38;;;;;;;2.80;1.50;;;12.00;52.50;;;;;;4274329;27;20049;-54
2022/04/19 11:04:39;;;;;;;1.73;1.47;;;12.10;52.50;;;;;;4263082;27;20102;-60
2022/04/19 11:06:40;;;;;;;1.93;1.37;;;12.00;52.20;;;;;;4262106;27;20065;-54
2022/04/19 11:08:43;;;;;;;4.87;1.47;;;12.00;52.40;;;;;;4275521;27;20050;-55